Time;durP1;ratioP1;P1;durP2;ratioP2;P2;SDS_P1;SDS_P2;PMS_P1;PMS_P2;Temp;Humidity;BMP_temperature;BMP_pressure;BME280_temperature;BME280_humidity;BME280_pressure;Samples;Min_cycle;Max_cycle;Signal;HPM_P1;HPM_P2
2022/03/09 00:05:53;;;;;;;42.80;29.30;;;;;;;0.67;67.55;100167.55;432031;1271;141571;-66
2022/03/09 00:15:59;;;;;;;42.50;25.90;;;;;;;0.64;67.53;100168.11;431387;1270;142601;-67
2022/03/09 00:26:05;;;;;;;54.00;31.10;;;;;;;0.64;67.45;100165.36;430633;1270;142174;-64
2022/03/09 00:36:12;;;;;;;54.60;30.70;;;;;;;0.61;67.79;100158.17;430133;1270;143124;-63
2022/03/09 00:46:19;;;;;;;49.80;31.80;;;;;;;0.54;67.85;100141.38;431447;1270;142043;-64
2022/03/09 00:56:25;;;;;;;42.60;29.00;;;;;;;0.50;67.76;100121.61;431517;1270;142119;-64
2022/03/09 01:06:31;;;;;;;52.60;30.50;;;;;;;0.44;68.30;100107.06;430482;1270;142343;-65
2022/03/09 01:16:36;;;;;;;44.50;28.10;;;;;;;0.38;68.32;100101.27;432142;1270;142828;-64
2022/03/09 01:26:43;;;;;;;41.00;24.90;;;;;;;0.40;68.33;100099.19;430771;1270;142329;-63
2022/03/09 01:36:49;;;;;;;43.50;24.80;;;;;;;0.35;68.30;100093.91;430026;1270;142021;-63
2022/03/09 01:46:56;;;;;;;41.70;25.60;;;;;;;0.33;68.10;100090.31;431483;1270;144530;-63
2022/03/09 01:57:03;;;;;;;36.20;24.00;;;;;;;0.33;68.51;100090.83;430612;1273;143134;-63
2022/03/09 02:07:09;;;;;;;;;;;;;;;0.33;68.50;100093.24;430335;1270;143297;-63
2022/03/09 02:17:17;;;;;;;42.70;25.40;;;;;;;0.26;68.43;100089.91;431421;1270;144436;-64
2022/03/09 02:27:23;;;;;;;42.20;23.90;;;;;;;0.05;68.51;100083.98;429691;1270;144019;-65
2022/03/09 02:37:29;;;;;;;43.70;26.40;;;;;;;-0.34;68.49;100082.03;433432;1270;199646;-65
2022/03/09 02:47:35;;;;;;;41.80;23.20;;;;;;;-0.77;68.96;100083.33;432031;1270;141468;-64
2022/03/09 02:57:41;;;;;;;38.50;23.60;;;;;;;-1.13;69.46;100085.19;429695;1270;143110;-64
2022/03/09 03:07:47;;;;;;;33.00;21.40;;;;;;;-1.47;70.01;100084.91;432023;1270;142003;-64
2022/03/09 03:17:53;;;;;;;44.20;25.50;;;;;;;-1.73;70.25;100077.70;431009;1270;142970;-64
2022/03/09 03:27:59;;;;;;;34.30;19.90;;;;;;;-1.96;70.61;100089.64;430529;1271;142349;-64
2022/03/09 03:38:05;;;;;;;32.10;20.20;;;;;;;-2.17;71.20;100092.65;429870;1273;142117;-63
2022/03/09 03:48:10;;;;;;;29.00;20.10;;;;;;;-2.32;71.43;100087.71;429565;1271;141793;-63
2022/03/09 03:58:16;;;;;;;32.40;20.10;;;;;;;-2.44;71.94;100084.33;431220;1271;143097;-61
2022/03/09 04:08:22;;;;;;;31.50;20.20;;;;;;;-2.53;72.33;100082.63;430298;1271;194162;-63
2022/03/09 04:18:28;;;;;;;31.90;18.60;;;;;;;-2.50;72.64;100079.02;429184;1270;143523;-64
2022/03/09 04:28:34;;;;;;;33.00;19.60;;;;;;;-2.32;72.65;100074.52;431174;1270;142766;-63
2022/03/09 04:38:40;;;;;;;31.40;19.50;;;;;;;-2.13;72.80;100069.98;431331;1270;142072;-64
2022/03/09 04:48:49;;;;;;;27.20;18.30;;;;;;;-1.97;72.51;100067.34;430682;1270;143444;-63
2022/03/09 04:58:54;;;;;;;30.40;17.50;;;;;;;-1.87;72.90;100067.46;431357;1270;142853;-63
2022/03/09 05:09:00;;;;;;;30.40;18.60;;;;;;;-1.76;72.86;100061.91;432649;1270;141882;-63
2022/03/09 05:19:12;;;;;;;28.60;18.20;;;;;;;-1.60;73.05;100069.37;430784;1270;143097;-64
2022/03/09 05:29:18;;;;;;;34.60;19.30;;;;;;;-1.42;73.68;100074.91;430269;1270;141775;-63
2022/03/09 05:39:24;;;;;;;30.10;21.10;;;;;;;-1.15;73.61;100082.96;429628;1270;142478;-63
2022/03/09 05:49:30;;;;;;;24.80;15.80;;;;;;;-0.96;73.58;100103.25;430373;1270;142611;-64
2022/03/09 05:59:36;;;;;;;30.30;18.30;;;;;;;-0.79;73.46;100106.55;430791;1271;142748;-64
2022/03/09 06:09:42;;;;;;;36.80;19.50;;;;;;;-0.55;72.81;100114.76;432508;1270;141959;-64
2022/03/09 06:19:48;;;;;;;27.50;18.10;;;;;;;-0.07;72.52;100128.70;431016;1270;141453;-64
2022/03/09 06:29:55;;;;;;;25.60;16.30;;;;;;;0.72;71.32;100134.57;434955;1270;141850;-63
2022/03/09 06:40:02;;;;;;;25.50;14.50;;;;;;;2.36;69.79;100135.74;430451;1270;142100;-62
2022/03/09 06:50:13;;;;;;;23.80;15.20;;;;;;;4.30;67.13;100140.26;431554;1270;141554;-63
2022/03/09 07:00:19;;;;;;;20.70;13.50;;;;;;;6.31;64.72;100136.89;430403;1270;142312;-63
2022/03/09 07:10:25;;;;;;;21.60;14.20;;;;;;;9.61;59.86;100124.97;431303;1270;141871;-61
2022/03/09 07:20:31;;;;;;;25.10;15.20;;;;;;;9.35;57.66;100131.72;430859;1270;141386;-63
2022/03/09 07:30:37;;;;;;;19.70;12.60;;;;;;;12.73;55.27;100133.36;428569;1270;141409;-65
2022/03/09 07:40:44;;;;;;;21.40;14.40;;;;;;;17.51;50.58;100130.55;429982;1270;142756;-65
2022/03/09 07:50:49;;;;;;;21.90;14.30;;;;;;;20.55;45.78;100130.88;430130;1270;142534;-67
2022/03/09 08:00:55;;;;;;;20.50;14.90;;;;;;;22.62;41.23;100125.92;429537;1270;144296;-66
2022/03/09 08:11:02;;;;;;;21.00;14.50;;;;;;;22.00;38.45;100123.36;430438;1270;142021;-66
2022/03/09 08:21:08;;;;;;;18.00;13.50;;;;;;;24.63;36.47;100112.46;430207;1271;146257;-64
2022/03/09 08:31:13;;;;;;;18.50;16.20;;;;;;;26.25;33.27;100100.52;432143;1271;207606;-67
2022/03/09 08:41:21;;;;;;;20.60;15.40;;;;;;;26.82;31.67;100083.10;445674;1270;142476;-67
2022/03/09 08:51:27;;;;;;;18.00;14.30;;;;;;;27.53;29.76;100091.69;446411;1271;141961;-67
2022/03/09 09:01:33;;;;;;;14.50;13.00;;;;;;;27.48;28.60;100095.14;446832;1273;141809;-67
2022/03/09 09:11:50;;;;;;;26.70;11.90;;;;;;;28.32;26.91;100097.38;446872;1273;141894;-67
2022/03/09 09:21:55;;;;;;;;;;;;;;;25.61;25.40;100099.92;446616;1270;142229;-67
2022/03/09 09:32:02;;;;;;;9.30;7.60;;;;;;;18.00;27.14;100108.70;447111;1269;184999;-66
2022/03/09 09:42:09;;;;;;;10.40;8.10;;;;;;;13.18;29.73;100117.59;446833;1271;142504;-65
2022/03/09 09:52:15;;;;;;;10.10;6.20;;;;;;;11.13;31.50;100127.52;447281;1271;143104;-66
2022/03/09 10:02:21;;;;;;;12.40;6.30;;;;;;;9.96;32.34;100138.09;441494;1272;142702;-64
2022/03/09 10:12:30;;;;;;;13.00;6.40;;;;;;;8.97;32.73;100146.34;439873;1271;144567;-65
2022/03/09 10:22:42;;;;;;;7.80;5.10;;;;;;;8.71;33.23;100150.17;446840;1273;142298;-65
2022/03/09 10:33:01;;;;;;;6.50;5.40;;;;;;;8.53;33.22;100130.76;447115;1272;140744;-66
2022/03/09 10:43:14;;;;;;;5.60;4.80;;;;;;;7.74;34.04;100121.17;447042;1272;142509;-65
2022/03/09 10:53:20;;;;;;;7.20;5.20;;;;;;;7.30;34.37;100120.77;440754;1271;140912;-63
2022/03/09 11:03:28;;;;;;;12.80;5.90;;;;;;;6.94;34.92;100126.41;431079;1271;140309;-64
2022/03/09 11:13:35;;;;;;;7.70;5.80;;;;;;;6.82;35.02;100126.91;434263;1271;142734;-63
2022/03/09 11:23:45;;;;;;;9.70;5.70;;;;;;;6.78;35.62;100121.47;432289;1271;141392;-65
2022/03/09 11:33:53;;;;;;;7.70;4.60;;;;;;;6.79;36.02;100125.95;430925;1271;140907;-63
2022/03/09 11:44:30;;;;;;;7.40;5.40;;;;;;;6.76;36.38;100126.60;432255;1271;140407;-60
2022/03/09 11:54:46;;;;;;;10.90;6.20;;;;;;;6.74;36.78;100112.92;432105;1271;141322;-62
2022/03/09 12:04:59;;;;;;;12.90;6.70;;;;;;;6.71;37.24;100115.17;431891;1271;141234;-67
2022/03/09 12:15:09;;;;;;;9.80;5.80;;;;;;;6.66;37.79;100117.80;431388;1271;142307;-70
2022/03/09 12:25:40;;;;;;;10.30;5.60;;;;;;;6.62;38.25;100112.89;431646;1271;140683;-67
2022/03/09 12:35:48;;;;;;;6.70;4.70;;;;;;;6.60;38.69;100120.28;433220;1271;140217;-76
2022/03/09 12:45:57;;;;;;;8.20;4.70;;;;;;;6.64;39.21;100122.05;431554;1272;139776;-62
2022/03/09 12:56:17;;;;;;;11.00;5.50;;;;;;;6.73;39.47;100113.33;433778;1271;140947;-63
2022/03/09 13:06:41;;;;;;;7.90;4.50;;;;;;;6.70;39.63;100113.45;430832;1273;141144;-63
2022/03/09 13:17:00;;;;;;;11.10;6.00;;;;;;;6.71;39.79;100116.17;432339;1271;141592;-64
2022/03/09 13:27:18;;;;;;;7.00;3.90;;;;;;;6.74;40.13;100108.75;431090;1270;140881;-65
2022/03/09 13:37:35;;;;;;;10.90;4.60;;;;;;;6.82;40.37;100114.19;433370;1270;140579;-61
2022/03/09 13:47:55;;;;;;;9.90;3.70;;;;;;;6.89;41.17;100122.44;433713;1270;139860;-60
2022/03/09 13:58:03;;;;;;;5.50;3.80;;;;;;;7.01;41.78;100124.06;431775;1270;140915;-61
2022/03/09 14:08:13;;;;;;;8.00;5.50;;;;;;;7.15;42.33;100134.63;432038;1270;141514;-63
2022/03/09 14:18:20;;;;;;;6.10;4.00;;;;;;;7.51;42.22;100138.19;431231;1273;140322;-64
2022/03/09 14:28:30;;;;;;;10.40;6.00;;;;;;;7.87;42.03;100134.73;431984;1271;141366;-61
2022/03/09 14:38:40;;;;;;;9.30;5.60;;;;;;;8.12;42.28;100123.38;433496;1270;141151;-62
2022/03/09 14:48:46;;;;;;;9.40;4.90;;;;;;;8.23;42.35;100120.23;432313;1270;140466;-63
2022/03/09 14:58:52;;;;;;;10.60;5.60;;;;;;;8.30;42.26;100126.38;432613;1270;141815;-67
2022/03/09 15:09:00;;;;;;;8.30;5.50;;;;;;;7.98;42.70;100137.91;432048;1270;142051;-64
2022/03/09 15:19:07;;;;;;;11.60;6.80;;;;;;;7.66;43.11;100141.71;431478;1270;141514;-62
2022/03/09 15:29:13;;;;;;;9.50;5.20;;;;;;;7.48;43.19;100144.94;432526;1270;141381;-62
2022/03/09 15:39:19;;;;;;;11.60;6.50;;;;;;;7.31;43.70;100147.23;433083;1270;140642;-63
2022/03/09 15:49:25;;;;;;;6.40;4.90;;;;;;;7.16;43.99;100157.92;431395;1273;142894;-62
2022/03/09 15:59:31;;;;;;;9.20;7.70;;;;;;;6.98;44.32;100169.94;431468;1270;142263;-63
2022/03/09 16:09:37;;;;;;;14.80;7.40;;;;;;;6.80;44.85;100177.46;432236;1270;141813;-63
2022/03/09 16:19:43;;;;;;;13.90;8.70;;;;;;;6.64;45.36;100180.81;431219;1270;142032;-62
2022/03/09 16:29:50;;;;;;;12.30;6.30;;;;;;;6.44;46.01;100192.01;431240;1270;140906;-62
2022/03/09 16:39:56;;;;;;;12.10;7.90;;;;;;;6.24;46.81;100208.73;430411;1270;141591;-63
2022/03/09 16:50:02;;;;;;;12.80;9.40;;;;;;;6.08;47.93;100215.38;431424;1270;141645;-65
2022/03/09 17:00:11;;;;;;;17.20;10.50;;;;;;;5.95;48.93;100223.64;431272;1270;142276;-66
2022/03/09 17:10:19;;;;;;;15.90;10.00;;;;;;;5.84;49.97;100241.04;431131;1270;211151;-70
2022/03/09 17:20:25;;;;;;;16.10;9.20;;;;;;;5.73;51.05;100254.40;431871;1271;143690;-68
2022/03/09 17:30:31;;;;;;;11.20;8.40;;;;;;;5.62;51.91;100268.17;430272;1273;142283;-70
2022/03/09 17:40:39;;;;;;;10.20;6.90;;;;;;;5.49;52.38;100275.52;431916;1270;141378;-69
2022/03/09 17:50:47;;;;;;;11.20;8.30;;;;;;;5.37;53.09;100285.61;432849;1270;141417;-69
2022/03/09 18:00:56;;;;;;;11.00;8.60;;;;;;;5.23;53.40;100293.16;431277;1270;142598;-69
2022/03/09 18:11:03;;;;;;;15.00;9.60;;;;;;;5.12;54.18;100307.38;432924;1270;142380;-69
2022/03/09 18:21:29;;;;;;;16.50;9.50;;;;;;;5.03;55.07;100318.75;430046;1270;141559;-70
2022/03/09 18:31:35;;;;;;;13.40;9.30;;;;;;;5.00;55.68;100327.14;431065;1270;140706;-69
2022/03/09 18:41:41;;;;;;;14.50;10.10;;;;;;;4.94;56.43;100341.20;432530;1270;140810;-70
2022/03/09 18:51:47;;;;;;;14.10;9.20;;;;;;;4.88;57.02;100355.42;432404;1270;140844;-65
2022/03/09 19:01:53;;;;;;;11.50;7.40;;;;;;;4.76;57.41;100374.50;431900;1270;141110;-70
2022/03/09 19:12:02;;;;;;;9.80;6.20;;;;;;;4.56;58.33;100384.58;433184;1270;140855;-64
2022/03/09 19:22:10;;;;;;;13.30;7.30;;;;;;;4.37;58.94;100403.24;432229;1270;140419;-65
2022/03/09 19:32:17;;;;;;;10.00;7.00;;;;;;;4.21;60.21;100408.86;433151;1271;141633;-65
2022/03/09 19:42:22;;;;;;;;;;;;;;;4.06;61.01;100414.94;430676;1271;141924;-66
2022/03/09 19:52:31;;;;;;;11.50;8.20;;;;;;;3.97;61.87;100424.50;432331;1270;127069;-73
2022/03/09 20:02:37;;;;;;;11.70;8.10;;;;;;;3.80;62.82;100430.59;433073;1270;141768;-64
2022/03/09 20:12:43;;;;;;;8.90;8.00;;;;;;;3.66;63.63;100438.35;431249;1270;142029;-69
2022/03/09 20:22:49;;;;;;;11.00;8.10;;;;;;;3.51;63.54;100455.80;431485;1271;140587;-68
2022/03/09 20:32:58;;;;;;;13.50;9.80;;;;;;;3.37;63.78;100472.70;431398;1270;209479;-65
2022/03/09 20:43:04;;;;;;;11.90;10.40;;;;;;;3.33;64.48;100488.53;429667;1270;141780;-68
2022/03/09 20:53:10;;;;;;;16.10;11.80;;;;;;;3.20;64.79;100505.02;430245;1273;184279;-68
2022/03/09 21:03:16;;;;;;;15.30;11.60;;;;;;;2.99;65.03;100522.20;430877;1270;142159;-69
2022/03/09 21:13:22;;;;;;;13.70;11.60;;;;;;;2.81;65.13;100542.04;431338;1270;141003;-69
2022/03/09 21:23:28;;;;;;;15.50;12.70;;;;;;;2.57;65.69;100555.21;430472;1271;142325;-70
2022/03/09 21:33:34;;;;;;;15.00;11.30;;;;;;;2.43;65.89;100563.38;430615;1270;142025;-68
2022/03/09 21:43:40;;;;;;;19.40;14.00;;;;;;;2.44;65.97;100571.65;430421;1270;142460;-68
2022/03/09 21:53:46;;;;;;;18.70;14.30;;;;;;;2.43;66.42;100578.42;431491;1270;141825;-64
2022/03/09 22:03:57;;;;;;;15.50;12.20;;;;;;;2.31;66.09;100600.19;430393;1270;141441;-65
2022/03/09 22:14:03;;;;;;;15.40;12.10;;;;;;;2.09;65.65;100613.08;433294;1272;141021;-64
2022/03/09 22:24:09;;;;;;;15.90;11.70;;;;;;;1.96;65.76;100622.73;431761;1270;142221;-66
2022/03/09 22:34:15;;;;;;;15.10;11.70;;;;;;;1.87;65.75;100640.45;430791;1270;142162;-66
2022/03/09 22:44:21;;;;;;;16.00;12.60;;;;;;;1.76;65.94;100647.13;431535;1270;142262;-67
2022/03/09 22:54:27;;;;;;;14.50;10.30;;;;;;;1.67;66.16;100652.75;430399;1270;141750;-65
2022/03/09 23:05:27;;;;;;;14.10;10.40;;;;;;;1.61;65.97;100666.45;431356;1270;142949;-65
2022/03/09 23:14:59;;;;;;;12.80;10.20;;;;;;;1.44;65.61;100674.54;431807;1270;142971;-65
2022/03/09 23:25:06;;;;;;;12.50;9.20;;;;;;;1.31;65.25;100686.37;430092;1270;142449;-66
2022/03/09 23:35:13;;;;;;;15.40;10.90;;;;;;;1.18;65.24;100691.82;430643;1271;142452;-65
2022/03/09 23:45:20;;;;;;;15.40;10.70;;;;;;;1.03;65.80;100703.15;429678;1270;141140;-65
2022/03/09 23:55:26;;;;;;;16.50;11.40;;;;;;;0.90;66.00;100716.31;431280;1270;143416;-65
